sensor_id;sensor_type;location;lat;lon;timestamp;temperature;humidity
18131;DHT22;9191;54.324;10.126;2022-07-23T00:00:51;16.50;99.90
18131;DHT22;9191;54.324;10.126;2022-07-23T00:03:19;16.50;99.90
18131;DHT22;9191;54.324;10.126;2022-07-23T00:05:46;16.60;99.90
18131;DHT22;9191;54.324;10.126;2022-07-23T00:08:13;16.70;99.90
18131;DHT22;9191;54.324;10.126;2022-07-23T00:10:39;16.80;99.90
18131;DHT22;9191;54.324;10.126;2022-07-23T00:13:06;16.70;99.90
18131;DHT22;9191;54.324;10.126;2022-07-23T00:15:33;16.60;99.90
18131;DHT22;9191;54.324;10.126;2022-07-23T00:17:59;16.60;99.90
18131;DHT22;9191;54.324;10.126;2022-07-23T00:20:27;16.60;99.90
18131;DHT22;9191;54.324;10.126;2022-07-23T00:22:54;16.50;99.90
18131;DHT22;9191;54.324;10.126;2022-07-23T00:25:22;16.50;99.90
18131;DHT22;9191;54.324;10.126;2022-07-23T00:27:48;16.60;99.90
18131;DHT22;9191;54.324;10.126;2022-07-23T00:30:15;16.70;99.90
18131;DHT22;9191;54.324;10.126;2022-07-23T00:32:45;16.60;99.90
18131;DHT22;9191;54.324;10.126;2022-07-23T00:35:12;16.50;99.90
18131;DHT22;9191;54.324;10.126;2022-07-23T00:37:40;16.50;99.90
18131;DHT22;9191;54.324;10.126;2022-07-23T00:40:07;16.40;99.90
18131;DHT22;9191;54.324;10.126;2022-07-23T00:42:34;16.30;99.90
18131;DHT22;9191;54.324;10.126;2022-07-23T00:45:01;16.20;99.90
18131;DHT22;9191;54.324;10.126;2022-07-23T00:47:28;16.20;99.90
18131;DHT22;9191;54.324;10.126;2022-07-23T00:49:54;16.40;99.90
18131;DHT22;9191;54.324;10.126;2022-07-23T00:52:21;16.30;99.90
18131;DHT22;9191;54.324;10.126;2022-07-23T00:54:49;16.40;99.90
18131;DHT22;9191;54.324;10.126;2022-07-23T00:57:16;16.40;99.90
18131;DHT22;9191;54.324;10.126;2022-07-23T00:59:43;16.40;99.90
18131;DHT22;9191;54.324;10.126;2022-07-23T01:02:10;16.30;99.90
18131;DHT22;9191;54.324;10.126;2022-07-23T01:04:36;16.40;99.90
18131;DHT22;9191;54.324;10.126;2022-07-23T01:07:03;16.40;99.90
18131;DHT22;9191;54.324;10.126;2022-07-23T01:09:30;16.40;99.90
18131;DHT22;9191;54.324;10.126;2022-07-23T01:11:58;16.30;99.90
18131;DHT22;9191;54.324;10.126;2022-07-23T01:14:25;16.30;99.90
18131;DHT22;9191;54.324;10.126;2022-07-23T01:16:52;16.20;99.90
18131;DHT22;9191;54.324;10.126;2022-07-23T01:19:18;16.20;99.90
18131;DHT22;9191;54.324;10.126;2022-07-23T01:21:46;16.20;99.90
18131;DHT22;9191;54.324;10.126;2022-07-23T01:24:15;16.20;99.90
18131;DHT22;9191;54.324;10.126;2022-07-23T01:26:42;16.30;99.90
18131;DHT22;9191;54.324;10.126;2022-07-23T01:29:09;16.30;99.90
18131;DHT22;9191;54.324;10.126;2022-07-23T01:31:36;16.20;99.90
18131;DHT22;9191;54.324;10.126;2022-07-23T01:34:03;16.20;99.90
18131;DHT22;9191;54.324;10.126;2022-07-23T01:36:29;16.20;99.90
18131;DHT22;9191;54.324;10.126;2022-07-23T01:38:56;16.30;99.90
18131;DHT22;9191;54.324;10.126;2022-07-23T01:41:24;16.20;99.90
18131;DHT22;9191;54.324;10.126;2022-07-23T01:43:51;16.20;99.90
18131;DHT22;9191;54.324;10.126;2022-07-23T01:46:17;16.20;99.90
18131;DHT22;9191;54.324;10.126;2022-07-23T01:48:44;16.20;99.90
18131;DHT22;9191;54.324;10.126;2022-07-23T01:51:11;16.30;99.90
18131;DHT22;9191;54.324;10.126;2022-07-23T01:53:37;16.30;99.90
18131;DHT22;9191;54.324;10.126;2022-07-23T01:56:04;16.30;99.90
18131;DHT22;9191;54.324;10.126;2022-07-23T01:58:32;16.30;99.90
18131;DHT22;9191;54.324;10.126;2022-07-23T02:00:59;16.20;99.90
18131;DHT22;9191;54.324;10.126;2022-07-23T02:03:25;16.30;99.90
18131;DHT22;9191;54.324;10.126;2022-07-23T02:05:52;16.20;99.90
18131;DHT22;9191;54.324;10.126;2022-07-23T02:08:18;16.30;99.90
18131;DHT22;9191;54.324;10.126;2022-07-23T02:10:45;16.20;99.90
18131;DHT22;9191;54.324;10.126;2022-07-23T02:13:12;16.10;99.90
18131;DHT22;9191;54.324;10.126;2022-07-23T02:15:41;16.10;99.90
18131;DHT22;9191;54.324;10.126;2022-07-23T02:18:08;16.10;99.90
18131;DHT22;9191;54.324;10.126;2022-07-23T02:20:34;16.10;99.90
18131;DHT22;9191;54.324;10.126;2022-07-23T02:23:04;16.00;99.90
18131;DHT22;9191;54.324;10.126;2022-07-23T02:25:30;16.00;99.90
18131;DHT22;9191;54.324;10.126;2022-07-23T02:27:57;15.90;99.90
18131;DHT22;9191;54.324;10.126;2022-07-23T02:30:24;16.00;99.90
18131;DHT22;9191;54.324;10.126;2022-07-23T02:32:54;16.00;99.90
18131;DHT22;9191;54.324;10.126;2022-07-23T02:35:21;16.10;99.90
18131;DHT22;9191;54.324;10.126;2022-07-23T02:37:48;16.10;99.90
18131;DHT22;9191;54.324;10.126;2022-07-23T02:40:14;16.10;99.90
18131;DHT22;9191;54.324;10.126;2022-07-23T02:42:41;16.00;99.90
18131;DHT22;9191;54.324;10.126;2022-07-23T02:45:08;16.10;99.90
18131;DHT22;9191;54.324;10.126;2022-07-23T02:47:34;16.10;99.90
18131;DHT22;9191;54.324;10.126;2022-07-23T02:50:04;16.20;99.90
18131;DHT22;9191;54.324;10.126;2022-07-23T02:52:32;16.10;99.90
18131;DHT22;9191;54.324;10.126;2022-07-23T02:54:58;16.10;99.90
18131;DHT22;9191;54.324;10.126;2022-07-23T02:57:25;16.10;99.90
18131;DHT22;9191;54.324;10.126;2022-07-23T02:59:52;16.20;99.90
18131;DHT22;9191;54.324;10.126;2022-07-23T03:02:18;16.30;99.90
18131;DHT22;9191;54.324;10.126;2022-07-23T03:04:45;16.20;99.90
18131;DHT22;9191;54.324;10.126;2022-07-23T03:07:13;16.20;99.90
18131;DHT22;9191;54.324;10.126;2022-07-23T03:09:40;16.10;99.90
18131;DHT22;9191;54.324;10.126;2022-07-23T03:12:06;16.10;99.90
18131;DHT22;9191;54.324;10.126;2022-07-23T03:14:33;16.10;99.90
18131;DHT22;9191;54.324;10.126;2022-07-23T03:17:00;16.00;99.90
18131;DHT22;9191;54.324;10.126;2022-07-23T03:19:26;16.00;99.90
18131;DHT22;9191;54.324;10.126;2022-07-23T03:21:53;16.00;99.90
18131;DHT22;9191;54.324;10.126;2022-07-23T03:24:21;15.90;99.90
18131;DHT22;9191;54.324;10.126;2022-07-23T03:26:48;16.10;99.90
18131;DHT22;9191;54.324;10.126;2022-07-23T03:29:15;16.00;99.90
18131;DHT22;9191;54.324;10.126;2022-07-23T03:31:42;16.00;99.90
18131;DHT22;9191;54.324;10.126;2022-07-23T03:34:09;16.00;99.90
18131;DHT22;9191;54.324;10.126;2022-07-23T03:36:35;16.00;99.90
18131;DHT22;9191;54.324;10.126;2022-07-23T03:39:02;16.10;99.90
18131;DHT22;9191;54.324;10.126;2022-07-23T03:41:30;16.00;99.90
18131;DHT22;9191;54.324;10.126;2022-07-23T03:43:57;16.00;99.90
18131;DHT22;9191;54.324;10.126;2022-07-23T03:46:24;15.90;99.90
18131;DHT22;9191;54.324;10.126;2022-07-23T03:48:50;15.80;99.90
18131;DHT22;9191;54.324;10.126;2022-07-23T03:51:17;15.90;99.90
18131;DHT22;9191;54.324;10.126;2022-07-23T03:53:44;15.90;99.90
18131;DHT22;9191;54.324;10.126;2022-07-23T03:56:10;16.00;99.90
18131;DHT22;9191;54.324;10.126;2022-07-23T03:58:38;16.00;99.90
18131;DHT22;9191;54.324;10.126;2022-07-23T04:01:05;15.90;99.90
18131;DHT22;9191;54.324;10.126;2022-07-23T04:03:31;16.00;99.90
18131;DHT22;9191;54.324;10.126;2022-07-23T04:05:58;15.90;99.90
18131;DHT22;9191;54.324;10.126;2022-07-23T04:08:25;15.90;99.90
18131;DHT22;9191;54.324;10.126;2022-07-23T04:10:51;16.00;99.90
18131;DHT22;9191;54.324;10.126;2022-07-23T04:13:18;16.10;99.90
18131;DHT22;9191;54.324;10.126;2022-07-23T04:15:46;16.10;99.90
18131;DHT22;9191;54.324;10.126;2022-07-23T04:18:15;16.20;99.90
18131;DHT22;9191;54.324;10.126;2022-07-23T04:20:42;16.10;99.90
18131;DHT22;9191;54.324;10.126;2022-07-23T04:23:09;16.20;99.90
18131;DHT22;9191;54.324;10.126;2022-07-23T04:25:35;16.20;99.90
18131;DHT22;9191;54.324;10.126;2022-07-23T04:28:02;16.30;99.90
18131;DHT22;9191;54.324;10.126;2022-07-23T04:30:29;16.40;99.90
18131;DHT22;9191;54.324;10.126;2022-07-23T04:32:57;16.50;99.90
18131;DHT22;9191;54.324;10.126;2022-07-23T04:35:24;16.50;99.90
18131;DHT22;9191;54.324;10.126;2022-07-23T04:37:50;16.50;99.90
18131;DHT22;9191;54.324;10.126;2022-07-23T04:40:17;16.50;99.90
18131;DHT22;9191;54.324;10.126;2022-07-23T04:42:44;16.50;99.90
18131;DHT22;9191;54.324;10.126;2022-07-23T04:45:10;16.50;99.90
18131;DHT22;9191;54.324;10.126;2022-07-23T04:47:37;16.50;99.90
18131;DHT22;9191;54.324;10.126;2022-07-23T04:50:05;16.60;99.90
18131;DHT22;9191;54.324;10.126;2022-07-23T04:52:32;16.60;99.90
18131;DHT22;9191;54.324;10.126;2022-07-23T04:54:58;16.70;99.90
18131;DHT22;9191;54.324;10.126;2022-07-23T04:57:25;16.70;99.90
18131;DHT22;9191;54.324;10.126;2022-07-23T04:59:52;16.60;99.90
18131;DHT22;9191;54.324;10.126;2022-07-23T05:02:18;16.60;99.90
18131;DHT22;9191;54.324;10.126;2022-07-23T05:04:45;16.70;99.90
18131;DHT22;9191;54.324;10.126;2022-07-23T05:07:13;16.70;99.90
18131;DHT22;9191;54.324;10.126;2022-07-23T05:09:39;16.70;99.90
18131;DHT22;9191;54.324;10.126;2022-07-23T05:12:06;16.60;99.90
18131;DHT22;9191;54.324;10.126;2022-07-23T05:14:33;16.70;99.90
18131;DHT22;9191;54.324;10.126;2022-07-23T05:17:00;16.60;99.90
18131;DHT22;9191;54.324;10.126;2022-07-23T05:19:26;16.50;99.90
18131;DHT22;9191;54.324;10.126;2022-07-23T05:21:53;16.70;99.90
18131;DHT22;9191;54.324;10.126;2022-07-23T05:24:21;16.50;99.90
18131;DHT22;9191;54.324;10.126;2022-07-23T05:26:48;16.70;99.90
18131;DHT22;9191;54.324;10.126;2022-07-23T05:29:14;16.50;99.90
18131;DHT22;9191;54.324;10.126;2022-07-23T05:31:41;16.60;99.90
18131;DHT22;9191;54.324;10.126;2022-07-23T05:34:07;16.60;99.90
18131;DHT22;9191;54.324;10.126;2022-07-23T05:36:34;16.60;99.90
18131;DHT22;9191;54.324;10.126;2022-07-23T05:39:01;16.70;99.90
18131;DHT22;9191;54.324;10.126;2022-07-23T05:41:29;16.70;99.90
18131;DHT22;9191;54.324;10.126;2022-07-23T05:43:56;16.70;99.90
18131;DHT22;9191;54.324;10.126;2022-07-23T05:46:22;16.70;99.90
18131;DHT22;9191;54.324;10.126;2022-07-23T05:48:49;16.80;99.90
18131;DHT22;9191;54.324;10.126;2022-07-23T05:51:18;16.90;99.90
18131;DHT22;9191;54.324;10.126;2022-07-23T05:53:45;16.90;99.90
18131;DHT22;9191;54.324;10.126;2022-07-23T05:56:12;16.80;99.90
18131;DHT22;9191;54.324;10.126;2022-07-23T05:58:40;17.00;99.90
18131;DHT22;9191;54.324;10.126;2022-07-23T06:01:06;17.10;99.90
18131;DHT22;9191;54.324;10.126;2022-07-23T06:03:33;17.10;99.90
18131;DHT22;9191;54.324;10.126;2022-07-23T06:05:59;17.10;99.90
18131;DHT22;9191;54.324;10.126;2022-07-23T06:08:26;17.20;99.90
18131;DHT22;9191;54.324;10.126;2022-07-23T06:10:53;17.10;99.90
18131;DHT22;9191;54.324;10.126;2022-07-23T06:13:19;17.10;99.90
18131;DHT22;9191;54.324;10.126;2022-07-23T06:15:47;17.20;99.90
18131;DHT22;9191;54.324;10.126;2022-07-23T06:18:14;17.20;99.90
18131;DHT22;9191;54.324;10.126;2022-07-23T06:20:41;17.20;99.90
18131;DHT22;9191;54.324;10.126;2022-07-23T06:23:07;17.30;99.90
18131;DHT22;9191;54.324;10.126;2022-07-23T06:25:34;17.50;99.90
18131;DHT22;9191;54.324;10.126;2022-07-23T06:28:00;17.50;99.90
18131;DHT22;9191;54.324;10.126;2022-07-23T06:30:27;17.60;99.90
18131;DHT22;9191;54.324;10.126;2022-07-23T06:32:55;17.50;99.90
18131;DHT22;9191;54.324;10.126;2022-07-23T06:35:22;17.50;99.90
18131;DHT22;9191;54.324;10.126;2022-07-23T06:37:48;17.50;99.90
18131;DHT22;9191;54.324;10.126;2022-07-23T06:40:15;17.40;99.90
18131;DHT22;9191;54.324;10.126;2022-07-23T06:42:41;17.30;99.90
18131;DHT22;9191;54.324;10.126;2022-07-23T06:45:08;17.30;99.90
18131;DHT22;9191;54.324;10.126;2022-07-23T06:47:35;17.30;99.90
18131;DHT22;9191;54.324;10.126;2022-07-23T06:50:03;17.20;99.90
18131;DHT22;9191;54.324;10.126;2022-07-23T06:52:30;17.10;99.90
18131;DHT22;9191;54.324;10.126;2022-07-23T06:54:57;17.30;99.90
18131;DHT22;9191;54.324;10.126;2022-07-23T06:57:23;17.40;99.90
18131;DHT22;9191;54.324;10.126;2022-07-23T06:59:51;17.40;99.90
18131;DHT22;9191;54.324;10.126;2022-07-23T07:02:17;17.40;99.90
18131;DHT22;9191;54.324;10.126;2022-07-23T07:04:44;17.30;99.90
18131;DHT22;9191;54.324;10.126;2022-07-23T07:07:12;17.30;99.90
18131;DHT22;9191;54.324;10.126;2022-07-23T07:09:38;17.50;99.90
18131;DHT22;9191;54.324;10.126;2022-07-23T07:12:05;17.60;99.90
18131;DHT22;9191;54.324;10.126;2022-07-23T07:14:32;17.70;99.90
18131;DHT22;9191;54.324;10.126;2022-07-23T07:16:59;17.50;99.90
18131;DHT22;9191;54.324;10.126;2022-07-23T07:19:25;17.50;99.90
18131;DHT22;9191;54.324;10.126;2022-07-23T07:21:52;17.30;99.90
18131;DHT22;9191;54.324;10.126;2022-07-23T07:24:20;17.10;99.90
18131;DHT22;9191;54.324;10.126;2022-07-23T07:26:46;17.10;99.90
18131;DHT22;9191;54.324;10.126;2022-07-23T07:29:13;17.10;99.90
18131;DHT22;9191;54.324;10.126;2022-07-23T07:31:40;17.20;99.90
18131;DHT22;9191;54.324;10.126;2022-07-23T07:34:06;17.40;99.90
18131;DHT22;9191;54.324;10.126;2022-07-23T07:36:33;17.20;99.90
18131;DHT22;9191;54.324;10.126;2022-07-23T07:39:02;17.20;99.90
18131;DHT22;9191;54.324;10.126;2022-07-23T07:41:30;17.20;99.90
18131;DHT22;9191;54.324;10.126;2022-07-23T07:43:57;17.20;99.90
18131;DHT22;9191;54.324;10.126;2022-07-23T07:46:23;17.20;99.90
18131;DHT22;9191;54.324;10.126;2022-07-23T07:48:52;17.40;99.90
18131;DHT22;9191;54.324;10.126;2022-07-23T07:51:19;17.50;99.90
18131;DHT22;9191;54.324;10.126;2022-07-23T07:53:46;17.50;99.90
18131;DHT22;9191;54.324;10.126;2022-07-23T07:56:12;17.50;99.90
18131;DHT22;9191;54.324;10.126;2022-07-23T07:58:40;17.50;99.90
18131;DHT22;9191;54.324;10.126;2022-07-23T08:01:07;17.70;99.90
18131;DHT22;9191;54.324;10.126;2022-07-23T08:03:34;17.80;99.90
18131;DHT22;9191;54.324;10.126;2022-07-23T08:06:00;17.80;99.90
18131;DHT22;9191;54.324;10.126;2022-07-23T08:08:27;18.00;99.90
18131;DHT22;9191;54.324;10.126;2022-07-23T08:10:54;18.30;99.90
18131;DHT22;9191;54.324;10.126;2022-07-23T08:13:20;18.40;99.90
18131;DHT22;9191;54.324;10.126;2022-07-23T08:15:48;18.30;99.90
18131;DHT22;9191;54.324;10.126;2022-07-23T08:18:15;18.50;99.90
18131;DHT22;9191;54.324;10.126;2022-07-23T08:20:41;18.80;99.90
18131;DHT22;9191;54.324;10.126;2022-07-23T08:23:08;18.80;99.90
18131;DHT22;9191;54.324;10.126;2022-07-23T08:25:36;19.00;99.90
18131;DHT22;9191;54.324;10.126;2022-07-23T08:28:03;19.40;99.90
18131;DHT22;9191;54.324;10.126;2022-07-23T08:30:30;20.00;99.90
18131;DHT22;9191;54.324;10.126;2022-07-23T08:32:59;20.90;99.90
18131;DHT22;9191;54.324;10.126;2022-07-23T08:35:27;20.90;99.90
18131;DHT22;9191;54.324;10.126;2022-07-23T08:37:54;20.30;99.90
18131;DHT22;9191;54.324;10.126;2022-07-23T08:40:21;19.90;99.90
18131;DHT22;9191;54.324;10.126;2022-07-23T08:42:48;19.80;99.90
18131;DHT22;9191;54.324;10.126;2022-07-23T08:45:16;19.40;99.90
18131;DHT22;9191;54.324;10.126;2022-07-23T08:47:43;19.20;99.90
18131;DHT22;9191;54.324;10.126;2022-07-23T08:50:11;19.30;99.90
18131;DHT22;9191;54.324;10.126;2022-07-23T08:52:39;19.70;99.90
18131;DHT22;9191;54.324;10.126;2022-07-23T08:55:07;20.20;99.90
18131;DHT22;9191;54.324;10.126;2022-07-23T08:57:33;20.30;99.90
18131;DHT22;9191;54.324;10.126;2022-07-23T09:00:00;20.60;99.90
18131;DHT22;9191;54.324;10.126;2022-07-23T09:02:27;20.90;99.90
18131;DHT22;9191;54.324;10.126;2022-07-23T09:04:54;20.80;99.90
18131;DHT22;9191;54.324;10.126;2022-07-23T09:07:22;20.20;99.90
18131;DHT22;9191;54.324;10.126;2022-07-23T09:09:52;20.10;99.90
18131;DHT22;9191;54.324;10.126;2022-07-23T09:12:30;19.80;99.90
18131;DHT22;9191;54.324;10.126;2022-07-23T09:14:57;19.80;99.90
18131;DHT22;9191;54.324;10.126;2022-07-23T09:17:29;19.80;99.90
18131;DHT22;9191;54.324;10.126;2022-07-23T09:20:07;19.50;99.90
18131;DHT22;9191;54.324;10.126;2022-07-23T09:22:35;19.10;99.90
18131;DHT22;9191;54.324;10.126;2022-07-23T09:25:02;18.80;99.90
18131;DHT22;9191;54.324;10.126;2022-07-23T09:27:44;18.80;99.90
18131;DHT22;9191;54.324;10.126;2022-07-23T09:30:11;18.80;99.90
18131;DHT22;9191;54.324;10.126;2022-07-23T09:32:38;18.80;99.90
18131;DHT22;9191;54.324;10.126;2022-07-23T09:35:05;19.00;99.90
18131;DHT22;9191;54.324;10.126;2022-07-23T09:37:32;18.90;99.90
18131;DHT22;9191;54.324;10.126;2022-07-23T09:40:04;19.00;99.90
18131;DHT22;9191;54.324;10.126;2022-07-23T09:42:31;19.00;99.90
18131;DHT22;9191;54.324;10.126;2022-07-23T09:44:58;19.30;99.90
18131;DHT22;9191;54.324;10.126;2022-07-23T09:47:26;19.60;99.90
18131;DHT22;9191;54.324;10.126;2022-07-23T09:49:59;20.30;99.90
18131;DHT22;9191;54.324;10.126;2022-07-23T09:52:27;20.60;99.90
18131;DHT22;9191;54.324;10.126;2022-07-23T09:54:58;20.90;99.90
18131;DHT22;9191;54.324;10.126;2022-07-23T09:57:27;21.50;99.90
18131;DHT22;9191;54.324;10.126;2022-07-23T09:59:55;21.70;99.90
18131;DHT22;9191;54.324;10.126;2022-07-23T10:02:22;21.90;99.90
18131;DHT22;9191;54.324;10.126;2022-07-23T10:04:49;21.90;99.90
18131;DHT22;9191;54.324;10.126;2022-07-23T10:07:18;22.00;99.90
18131;DHT22;9191;54.324;10.126;2022-07-23T10:09:47;21.60;99.90
18131;DHT22;9191;54.324;10.126;2022-07-23T10:12:16;21.70;99.90
18131;DHT22;9191;54.324;10.126;2022-07-23T10:14:59;21.20;99.90
18131;DHT22;9191;54.324;10.126;2022-07-23T10:17:27;21.70;99.90
18131;DHT22;9191;54.324;10.126;2022-07-23T10:19:54;21.90;99.90
18131;DHT22;9191;54.324;10.126;2022-07-23T10:22:23;22.20;99.90
18131;DHT22;9191;54.324;10.126;2022-07-23T10:24:53;22.40;99.90
18131;DHT22;9191;54.324;10.126;2022-07-23T10:27:30;22.20;99.90
18131;DHT22;9191;54.324;10.126;2022-07-23T10:30:00;22.30;99.90
18131;DHT22;9191;54.324;10.126;2022-07-23T10:32:32;21.70;99.90
18131;DHT22;9191;54.324;10.126;2022-07-23T10:35:03;21.60;99.90
18131;DHT22;9191;54.324;10.126;2022-07-23T10:37:35;21.30;99.90
18131;DHT22;9191;54.324;10.126;2022-07-23T10:40:09;21.10;99.90
18131;DHT22;9191;54.324;10.126;2022-07-23T10:42:36;20.80;99.90
18131;DHT22;9191;54.324;10.126;2022-07-23T10:47:46;20.40;99.90
18131;DHT22;9191;54.324;10.126;2022-07-23T10:50:16;20.50;99.90
18131;DHT22;9191;54.324;10.126;2022-07-23T10:52:43;20.30;99.90
18131;DHT22;9191;54.324;10.126;2022-07-23T10:55:39;20.30;99.90
18131;DHT22;9191;54.324;10.126;2022-07-23T10:58:06;20.00;99.90
18131;DHT22;9191;54.324;10.126;2022-07-23T11:00:33;20.00;99.90
18131;DHT22;9191;54.324;10.126;2022-07-23T11:03:02;19.80;99.90
18131;DHT22;9191;54.324;10.126;2022-07-23T11:05:41;19.60;99.90
18131;DHT22;9191;54.324;10.126;2022-07-23T11:08:13;19.60;99.90
18131;DHT22;9191;54.324;10.126;2022-07-23T11:10:46;19.60;99.90
18131;DHT22;9191;54.324;10.126;2022-07-23T11:16:14;19.60;99.90
18131;DHT22;9191;54.324;10.126;2022-07-23T11:19:03;19.70;99.90
18131;DHT22;9191;54.324;10.126;2022-07-23T11:24:21;19.40;99.90
18131;DHT22;9191;54.324;10.126;2022-07-23T11:26:55;19.50;99.90
18131;DHT22;9191;54.324;10.126;2022-07-23T11:29:38;19.80;99.90
18131;DHT22;9191;54.324;10.126;2022-07-23T11:32:05;20.00;99.90
18131;DHT22;9191;54.324;10.126;2022-07-23T11:34:34;19.80;99.90
18131;DHT22;9191;54.324;10.126;2022-07-23T11:37:02;20.30;99.90
18131;DHT22;9191;54.324;10.126;2022-07-23T11:39:29;21.00;99.90
18131;DHT22;9191;54.324;10.126;2022-07-23T11:41:56;21.30;99.90
18131;DHT22;9191;54.324;10.126;2022-07-23T11:44:24;21.10;99.90
18131;DHT22;9191;54.324;10.126;2022-07-23T11:46:54;21.40;99.90
18131;DHT22;9191;54.324;10.126;2022-07-23T11:49:20;21.30;99.90
18131;DHT22;9191;54.324;10.126;2022-07-23T11:51:48;21.00;99.90
18131;DHT22;9191;54.324;10.126;2022-07-23T11:54:28;20.90;99.90
18131;DHT22;9191;54.324;10.126;2022-07-23T11:56:55;21.00;99.90
18131;DHT22;9191;54.324;10.126;2022-07-23T11:59:21;20.60;99.90
18131;DHT22;9191;54.324;10.126;2022-07-23T12:01:55;20.50;99.90
18131;DHT22;9191;54.324;10.126;2022-07-23T12:04:24;20.30;99.90
18131;DHT22;9191;54.324;10.126;2022-07-23T12:06:52;20.10;99.90
18131;DHT22;9191;54.324;10.126;2022-07-23T12:09:18;19.90;99.90
18131;DHT22;9191;54.324;10.126;2022-07-23T12:11:57;19.80;99.90
18131;DHT22;9191;54.324;10.126;2022-07-23T12:14:24;19.80;99.90
18131;DHT22;9191;54.324;10.126;2022-07-23T12:19:32;21.70;99.90
18131;DHT22;9191;54.324;10.126;2022-07-23T12:22:00;22.40;99.90
18131;DHT22;9191;54.324;10.126;2022-07-23T12:24:27;23.80;99.90
18131;DHT22;9191;54.324;10.126;2022-07-23T12:27:09;24.10;99.90
18131;DHT22;9191;54.324;10.126;2022-07-23T12:29:36;23.60;99.90
18131;DHT22;9191;54.324;10.126;2022-07-23T12:32:14;23.30;99.90
18131;DHT22;9191;54.324;10.126;2022-07-23T12:34:41;22.50;99.90
18131;DHT22;9191;54.324;10.126;2022-07-23T12:37:14;21.70;99.90
18131;DHT22;9191;54.324;10.126;2022-07-23T12:39:50;21.00;99.90
18131;DHT22;9191;54.324;10.126;2022-07-23T12:42:16;20.50;99.90
18131;DHT22;9191;54.324;10.126;2022-07-23T12:47:25;19.70;99.90
18131;DHT22;9191;54.324;10.126;2022-07-23T12:49:52;19.50;99.90
18131;DHT22;9191;54.324;10.126;2022-07-23T12:52:20;19.30;99.90
18131;DHT22;9191;54.324;10.126;2022-07-23T12:54:47;19.20;99.90
18131;DHT22;9191;54.324;10.126;2022-07-23T12:57:13;19.00;99.90
18131;DHT22;9191;54.324;10.126;2022-07-23T12:59:40;19.00;99.90
18131;DHT22;9191;54.324;10.126;2022-07-23T13:02:08;18.80;99.90
18131;DHT22;9191;54.324;10.126;2022-07-23T13:04:35;18.60;99.90
18131;DHT22;9191;54.324;10.126;2022-07-23T13:07:02;18.90;99.90
18131;DHT22;9191;54.324;10.126;2022-07-23T13:09:31;19.20;99.90
18131;DHT22;9191;54.324;10.126;2022-07-23T13:11:58;19.60;99.90
18131;DHT22;9191;54.324;10.126;2022-07-23T13:14:25;20.60;99.90
18131;DHT22;9191;54.324;10.126;2022-07-23T13:16:52;22.00;99.90
18131;DHT22;9191;54.324;10.126;2022-07-23T13:19:19;23.00;99.90
18131;DHT22;9191;54.324;10.126;2022-07-23T13:21:47;22.90;99.90
18131;DHT22;9191;54.324;10.126;2022-07-23T13:24:14;22.20;99.90
18131;DHT22;9191;54.324;10.126;2022-07-23T13:26:42;22.00;99.90
18131;DHT22;9191;54.324;10.126;2022-07-23T13:29:09;21.70;99.90
18131;DHT22;9191;54.324;10.126;2022-07-23T13:31:36;21.20;99.90
18131;DHT22;9191;54.324;10.126;2022-07-23T13:34:03;20.40;99.90
18131;DHT22;9191;54.324;10.126;2022-07-23T13:36:30;20.10;99.90
18131;DHT22;9191;54.324;10.126;2022-07-23T13:38:57;20.00;99.90
18131;DHT22;9191;54.324;10.126;2022-07-23T13:41:24;19.60;99.90
18131;DHT22;9191;54.324;10.126;2022-07-23T13:43:52;19.40;99.90
18131;DHT22;9191;54.324;10.126;2022-07-23T13:46:18;19.10;99.90
18131;DHT22;9191;54.324;10.126;2022-07-23T13:48:45;19.20;99.90
18131;DHT22;9191;54.324;10.126;2022-07-23T13:51:11;19.10;99.90
18131;DHT22;9191;54.324;10.126;2022-07-23T13:53:38;19.10;99.90
18131;DHT22;9191;54.324;10.126;2022-07-23T13:56:05;19.10;99.90
18131;DHT22;9191;54.324;10.126;2022-07-23T13:58:32;19.40;99.90
18131;DHT22;9191;54.324;10.126;2022-07-23T14:01:00;19.60;99.90
18131;DHT22;9191;54.324;10.126;2022-07-23T14:03:26;19.90;99.90
18131;DHT22;9191;54.324;10.126;2022-07-23T14:05:53;20.40;99.90
18131;DHT22;9191;54.324;10.126;2022-07-23T14:08:20;20.80;99.90
18131;DHT22;9191;54.324;10.126;2022-07-23T14:10:47;20.70;99.90
18131;DHT22;9191;54.324;10.126;2022-07-23T14:13:13;20.70;99.90
18131;DHT22;9191;54.324;10.126;2022-07-23T14:15:40;20.70;99.90
18131;DHT22;9191;54.324;10.126;2022-07-23T14:18:08;20.40;99.90
18131;DHT22;9191;54.324;10.126;2022-07-23T14:20:35;20.10;99.90
18131;DHT22;9191;54.324;10.126;2022-07-23T14:23:01;19.80;99.90
18131;DHT22;9191;54.324;10.126;2022-07-23T14:25:28;19.80;99.90
18131;DHT22;9191;54.324;10.126;2022-07-23T14:27:55;19.80;99.90
18131;DHT22;9191;54.324;10.126;2022-07-23T14:30:21;19.70;99.90
18131;DHT22;9191;54.324;10.126;2022-07-23T14:32:49;19.60;99.90
18131;DHT22;9191;54.324;10.126;2022-07-23T14:35:17;19.70;99.90
18131;DHT22;9191;54.324;10.126;2022-07-23T14:37:44;19.60;99.90
18131;DHT22;9191;54.324;10.126;2022-07-23T14:40:11;19.80;99.90
18131;DHT22;9191;54.324;10.126;2022-07-23T14:42:37;19.90;99.90
18131;DHT22;9191;54.324;10.126;2022-07-23T14:45:04;20.20;99.90
18131;DHT22;9191;54.324;10.126;2022-07-23T14:47:31;19.70;99.90
18131;DHT22;9191;54.324;10.126;2022-07-23T14:49:58;19.40;99.90
18131;DHT22;9191;54.324;10.126;2022-07-23T14:52:26;19.30;99.90
18131;DHT22;9191;54.324;10.126;2022-07-23T14:54:53;19.30;99.90
18131;DHT22;9191;54.324;10.126;2022-07-23T14:57:19;19.30;99.90
18131;DHT22;9191;54.324;10.126;2022-07-23T14:59:46;19.30;99.90
18131;DHT22;9191;54.324;10.126;2022-07-23T15:02:13;19.50;99.90
18131;DHT22;9191;54.324;10.126;2022-07-23T15:04:39;19.50;99.90
18131;DHT22;9191;54.324;10.126;2022-07-23T15:07:06;19.90;99.90
18131;DHT22;9191;54.324;10.126;2022-07-23T15:09:34;20.10;99.90
18131;DHT22;9191;54.324;10.126;2022-07-23T15:12:02;20.60;99.90
18131;DHT22;9191;54.324;10.126;2022-07-23T15:14:28;20.40;99.90
18131;DHT22;9191;54.324;10.126;2022-07-23T15:16:55;20.10;99.90
18131;DHT22;9191;54.324;10.126;2022-07-23T15:19:22;20.00;99.90
18131;DHT22;9191;54.324;10.126;2022-07-23T15:21:48;19.90;99.90
18131;DHT22;9191;54.324;10.126;2022-07-23T15:24:15;20.10;99.90
18131;DHT22;9191;54.324;10.126;2022-07-23T15:26:43;20.00;99.90
18131;DHT22;9191;54.324;10.126;2022-07-23T15:29:10;20.00;99.90
18131;DHT22;9191;54.324;10.126;2022-07-23T15:31:36;19.90;99.90
18131;DHT22;9191;54.324;10.126;2022-07-23T15:34:03;19.80;99.90
18131;DHT22;9191;54.324;10.126;2022-07-23T15:36:30;19.70;99.90
18131;DHT22;9191;54.324;10.126;2022-07-23T15:38:56;19.70;99.90
18131;DHT22;9191;54.324;10.126;2022-07-23T15:41:23;19.70;99.90
18131;DHT22;9191;54.324;10.126;2022-07-23T15:43:51;19.90;99.90
18131;DHT22;9191;54.324;10.126;2022-07-23T15:46:20;19.80;99.90